Airfield :
LOGIN :

Register | Disclaimer

   EN    FR    IT 

 










Legend :    VFR   Marginal VFR   IFR   Intensive IFR   Very Intensive IFR
Visi :
Ceiling :
>= 8 km
>= 3000ft
5 to 8 km
1000 to 3000 ft
1500m to 5 km
500 to 1000 ft
800 to 1500m
200 to 500 ft
< 800m
< 200 ft
Symbols :   Thunderstorms  Fog  Heavy snow  Heavy precipitations  Wind > 20 kt
SIGMETs :     Misc.  Thunderstorms  Icing  Turbulence  Mountain Waves  Volcanic Ashes






- Airport Elevation : 489 ft
- IATA code : GDN


EPGD - Gdansk

CURRENT METAR :
  • 120100Z 13007KT 1000 R29/1900N BR BKN001 OVC002 M00/M00 Q1011

EXPIRED METARs :
  • 120030Z 13008KT 0700 R29/1000D FZFG BKN001 M00/M00 Q1011
  • 120000Z 13008KT 2400 BR BKN002 BKN042 00/00 Q1011
  • 112330Z 13007KT 2400 BR BKN002 BKN044 00/M00 Q1012
  • 112300Z 14008KT 3500 BR SCT003 BKN006 00/00 Q1012
  • 112230Z 14008KT 4000 BR FEW003 SCT005 01/00 Q1012

TAF TAF EPGD
Valid from the 12 at 00:00 until the 13 at 00:00 UTC


112320Z 1200/1224 16010KT 4500 BR BKN040
TEMPO 1200/1207 2000 BR BKN002
PROB40
TEMPO 1200/1206 0600 FG OVC001
BECMG 1207/1209 6000 BKN007 BKN012
BECMG 1212/1214 4000 -RA BR
TEMPO 1214/1224 2000 RA BR BKN004
BECMG 1220/1224 VRB02KT



MET'MAP, your aeronautical weather chart ! - Copyright ORBIFLY December 2007 - Disclaimer

ORBIFLY MET'MAP TEAM :

Programming & Development : Alexandra Zaïnal
Concept & Development : Baudouin d'Aumeries
Co-Development & Prog : Marc-Olivier Méhu
Technical & hardware support : Manuel Goepfert

Contact : metmap@orbifly.com




SOURCES & CREDITS :

   NOAA